Time;durP1;ratioP1;P1;durP2;ratioP2;P2;SDS_P1;SDS_P2;PMS_P1;PMS_P2;Temp;Humidity;BMP_temperature;BMP_pressure;BME280_temperature;BME280_humidity;BME280_pressure;Samples;Min_cycle;Max_cycle;Signal;HPM_P1;HPM_P2
2021/09/20 00:00:47;;;;;;;6.60;6.00;;;13.20;99.90;;;;;;6092405;23;20566;-80
2021/09/20 00:03:29;;;;;;;6.40;5.80;;;13.10;99.90;;;;;;6092542;23;21135;-80
2021/09/20 00:06:10;;;;;;;6.30;5.70;;;13.10;99.90;;;;;;6092689;23;20607;-80
2021/09/20 00:08:57;;;;;;;5.90;5.40;;;13.10;99.90;;;;;;6090739;23;20620;-80
2021/09/20 00:11:38;;;;;;;6.20;5.70;;;13.10;99.90;;;;;;6092368;23;20565;-80
2021/09/20 00:14:25;;;;;;;5.93;5.43;;;13.00;99.90;;;;;;6090617;23;20612;-80
2021/09/20 00:17:09;;;;;;;6.47;5.83;;;13.00;99.90;;;;;;6090603;23;20666;-80
2021/09/20 00:19:43;;;;;;;8.10;5.60;;;13.00;99.90;;;;;;6092278;22;20577;-79
2021/09/20 00:22:30;;;;;;;6.60;6.00;;;13.10;99.90;;;;;;6092188;23;20669;-79
2021/09/20 00:25:00;;;;;;;5.73;5.23;;;13.00;99.90;;;;;;6092038;23;20569;-80
2021/09/20 00:27:47;;;;;;;8.40;7.10;;;13.00;99.90;;;;;;6089601;23;20644;-80
2021/09/20 00:30:25;;;;;;;6.40;5.80;;;13.00;99.90;;;;;;6092029;23;20684;-80
2021/09/20 00:33:01;;;;;;;6.63;6.03;;;13.00;99.90;;;;;;6092482;23;20589;-80
2021/09/20 00:35:48;;;;;;;6.73;6.07;;;13.10;99.90;;;;;;6091971;23;20622;-80
2021/09/20 00:38:20;;;;;;;6.83;5.53;;;13.20;99.90;;;;;;6089774;23;20650;-80
2021/09/20 00:40:52;;;;;;;5.77;5.20;;;13.40;99.90;;;;;;6085487;23;20957;-80
2021/09/20 00:43:32;;;;;;;7.90;5.80;;;13.30;99.90;;;;;;6090364;23;21207;-79
2021/09/20 00:46:09;;;;;;;5.67;5.10;;;13.20;99.90;;;;;;6090221;23;20538;-80
2021/09/20 00:48:57;;;;;;;6.93;6.30;;;13.10;99.90;;;;;;6088691;23;20668;-80
2021/09/20 00:51:33;;;;;;;7.30;6.47;;;13.10;99.90;;;;;;6090621;23;20568;-80
2021/09/20 00:54:13;;;;;;;7.37;6.73;;;13.10;99.90;;;;;;6090462;23;20586;-80
2021/09/20 00:56:48;;;;;;;6.97;6.40;;;12.90;99.90;;;;;;6088941;23;21137;-79
2021/09/20 00:59:36;;;;;;;7.03;6.33;;;12.90;99.90;;;;;;6088998;23;20577;-80
2021/09/20 01:02:11;;;;;;;11.33;6.43;;;13.00;99.90;;;;;;6088035;23;20614;-80
2021/09/20 01:04:59;;;;;;;6.20;5.50;;;13.10;99.90;;;;;;6089109;23;20589;-79
2021/09/20 01:07:36;;;;;;;7.70;6.63;;;13.10;99.90;;;;;;6088874;23;20566;-80
2021/09/20 01:10:23;;;;;;;8.93;6.27;;;13.00;99.90;;;;;;6089138;23;20606;-80
2021/09/20 01:13:05;;;;;;;6.90;6.20;;;12.90;99.90;;;;;;6089957;23;20570;-79
2021/09/20 01:15:53;;;;;;;7.03;6.40;;;13.10;99.90;;;;;;6088345;23;20697;-80
2021/09/20 01:18:39;;;;;;;7.10;6.07;;;13.10;99.90;;;;;;6088050;23;21083;-80
2021/09/20 01:21:28;;;;;;;8.37;6.67;;;13.10;99.90;;;;;;6088942;23;21033;-80
2021/09/20 01:24:16;;;;;;;7.27;5.80;;;13.30;99.90;;;;;;6089820;23;20689;-80
2021/09/20 01:27:05;;;;;;;6.70;6.10;;;13.20;99.90;;;;;;6087993;23;20614;-80
2021/09/20 01:29:51;;;;;;;7.33;6.57;;;13.20;99.90;;;;;;6089638;23;20939;-79
2021/09/20 01:32:38;;;;;;;7.77;5.90;;;13.10;99.90;;;;;;6088551;23;21129;-79
2021/09/20 01:35:25;;;;;;;6.40;5.80;;;13.00;99.90;;;;;;6089798;23;20999;-80
2021/09/20 01:38:09;;;;;;;6.57;5.90;;;13.00;99.90;;;;;;6089721;23;20975;-80
2021/09/20 01:40:57;;;;;;;6.83;6.23;;;13.10;99.90;;;;;;6088918;23;20595;-80
2021/09/20 01:43:44;;;;;;;6.70;6.10;;;12.90;99.90;;;;;;6089723;23;20605;-80
2021/09/20 01:46:31;;;;;;;6.20;5.60;;;12.90;99.90;;;;;;6089149;23;20598;-80
2021/09/20 01:49:14;;;;;;;6.50;5.70;;;12.90;99.90;;;;;;6089489;23;20602;-79
2021/09/20 01:51:56;;;;;;;8.17;6.10;;;12.90;99.90;;;;;;6083710;23;20616;-80
2021/09/20 01:54:35;;;;;;;6.17;5.60;;;12.80;99.90;;;;;;6090210;23;20932;-79
2021/09/20 01:57:08;;;;;;;6.40;5.80;;;12.80;99.90;;;;;;6089660;23;20570;-80
2021/09/20 01:59:54;;;;;;;6.93;6.07;;;12.90;99.90;;;;;;6088335;23;20951;-80
2021/09/20 02:02:42;;;;;;;6.60;5.60;;;12.80;99.90;;;;;;6089698;23;20622;-80
2021/09/20 02:05:22;;;;;;;7.30;6.27;;;12.80;99.90;;;;;;6090069;23;20554;-80
2021/09/20 02:08:05;;;;;;;8.30;6.00;;;12.80;99.90;;;;;;6089087;23;20643;-80
2021/09/20 02:10:44;;;;;;;7.60;6.17;;;12.80;99.90;;;;;;6089791;23;20595;-79
2021/09/20 02:13:20;;;;;;;6.63;5.87;;;12.80;99.90;;;;;;6090381;23;20553;-80
2021/09/20 02:16:01;;;;;;;8.50;6.50;;;12.80;99.90;;;;;;6089585;23;20647;-79
2021/09/20 02:18:39;;;;;;;6.40;5.70;;;12.70;99.90;;;;;;6089643;23;20566;-80
2021/09/20 02:21:25;;;;;;;6.77;6.07;;;12.80;99.90;;;;;;6089845;23;20665;-80
2021/09/20 02:24:06;;;;;;;9.83;6.13;;;12.70;99.90;;;;;;6089927;23;20545;-80
2021/09/20 02:26:43;;;;;;;6.13;5.60;;;12.70;99.90;;;;;;6089549;23;20561;-80
2021/09/20 02:29:26;;;;;;;6.13;5.63;;;12.70;99.90;;;;;;6089532;23;20612;-80
2021/09/20 02:32:00;;;;;;;7.00;6.30;;;12.80;99.90;;;;;;6089668;23;20588;-80
2021/09/20 02:34:31;;;;;;;7.43;6.57;;;12.80;99.90;;;;;;6090246;23;20884;-79
2021/09/20 02:37:12;;;;;;;6.80;6.20;;;12.90;99.90;;;;;;6088827;23;20667;-80
2021/09/20 02:39:53;;;;;;;7.07;5.93;;;12.90;99.90;;;;;;6089853;23;20589;-79
2021/09/20 02:42:26;;;;;;;9.20;6.00;;;12.90;99.90;;;;;;6089825;23;20625;-80
2021/09/20 02:45:08;;;;;;;6.20;5.60;;;12.90;99.90;;;;;;6089411;23;20590;-80
2021/09/20 02:47:56;;;;;;;6.70;6.00;;;12.90;99.90;;;;;;6088914;23;20652;-80
2021/09/20 02:50:29;;;;;;;6.03;5.43;;;12.80;99.90;;;;;;6090245;23;20566;-80
2021/09/20 02:53:10;;;;;;;8.13;7.17;;;12.90;99.90;;;;;;6090188;23;20565;-79
2021/09/20 02:55:50;;;;;;;7.67;6.47;;;12.80;99.90;;;;;;6090283;23;21008;-80
2021/09/20 02:58:30;;;;;;;7.10;6.13;;;12.80;99.90;;;;;;6089204;23;20566;-79
2021/09/20 03:01:09;;;;;;;6.47;5.87;;;12.90;99.90;;;;;;6085247;23;20633;-80
2021/09/20 03:03:45;;;;;;;6.43;5.80;;;12.90;99.90;;;;;;6087689;22;20651;-80
2021/09/20 03:06:32;;;;;;;6.77;6.07;;;12.80;99.90;;;;;;6086169;23;20613;-80
2021/09/20 03:09:06;;;;;;;7.70;6.90;;;12.80;99.90;;;;;;6089169;23;21084;-80
2021/09/20 03:11:40;;;;;;;6.70;6.00;;;12.80;99.90;;;;;;6089872;23;20647;-79
2021/09/20 03:14:16;;;;;;;6.57;5.87;;;12.80;99.90;;;;;;6088831;23;20911;-80
2021/09/20 03:16:49;;;;;;;9.97;6.30;;;12.80;99.90;;;;;;6088947;23;20608;-79
2021/09/20 03:19:30;;;;;;;6.60;6.00;;;12.90;99.90;;;;;;6089135;23;20526;-79
2021/09/20 03:22:08;;;;;;;6.80;6.10;;;12.90;99.90;;;;;;6089631;23;20590;-79
2021/09/20 03:24:41;;;;;;;6.07;5.57;;;12.90;99.90;;;;;;6089226;23;20665;-80
2021/09/20 03:27:17;;;;;;;7.13;5.80;;;12.90;99.90;;;;;;6088746;23;21093;-80
2021/09/20 03:29:50;;;;;;;6.37;5.87;;;12.90;99.90;;;;;;6089129;23;20593;-79
2021/09/20 03:32:29;;;;;;;7.47;6.30;;;12.80;99.90;;;;;;6089346;23;20612;-79
2021/09/20 03:35:01;;;;;;;7.17;6.40;;;12.90;99.90;;;;;;6089554;23;20875;-80
2021/09/20 03:37:48;;;;;;;6.80;6.10;;;12.90;99.90;;;;;;6087553;23;20628;-79
2021/09/20 03:40:21;;;;;;;6.83;6.17;;;12.90;99.90;;;;;;6089406;23;20595;-80
2021/09/20 03:43:03;;;;;;;9.93;6.40;;;13.00;99.90;;;;;;6089707;23;20636;-79
2021/09/20 03:45:46;;;;;;;8.23;6.67;;;13.00;99.90;;;;;;6088983;23;20620;-79
2021/09/20 03:48:20;;;;;;;6.40;5.80;;;13.00;99.90;;;;;;6088613;23;20547;-79
2021/09/20 03:51:07;;;;;;;7.77;6.97;;;12.90;99.90;;;;;;6089287;23;20957;-80
2021/09/20 03:53:38;;;;;;;7.00;6.10;;;13.00;99.90;;;;;;6089394;23;20568;-79
2021/09/20 03:56:16;;;;;;;11.60;6.70;;;13.00;99.90;;;;;;6089324;23;20955;-80
2021/09/20 03:58:50;;;;;;;7.13;6.30;;;12.90;99.90;;;;;;6089092;23;20586;-79
2021/09/20 04:01:27;;;;;;;7.20;6.43;;;13.00;99.90;;;;;;6088356;23;21210;-79
2021/09/20 04:03:59;;;;;;;8.03;6.80;;;12.90;99.90;;;;;;6089433;23;20559;-79
2021/09/20 04:06:32;;;;;;;7.83;6.00;;;12.80;99.90;;;;;;6087211;23;20563;-80
2021/09/20 04:09:16;;;;;;;9.93;6.93;;;12.80;99.90;;;;;;6089517;23;20559;-80
2021/09/20 04:11:53;;;;;;;8.20;6.90;;;12.90;99.90;;;;;;6082435;23;20612;-80
2021/09/20 04:14:30;;;;;;;8.50;7.63;;;12.90;99.90;;;;;;6090108;23;20574;-79
2021/09/20 04:17:11;;;;;;;7.57;6.67;;;12.80;99.90;;;;;;6089559;23;20569;-80
2021/09/20 04:19:47;;;;;;;12.17;7.57;;;12.80;99.90;;;;;;6090223;23;20529;-80
2021/09/20 04:22:34;;;;;;;8.40;7.40;;;12.80;99.90;;;;;;6089697;23;21252;-80
2021/09/20 04:25:13;;;;;;;7.47;6.77;;;12.80;99.90;;;;;;6090152;23;20892;-80
2021/09/20 04:27:54;;;;;;;6.87;6.00;;;12.80;99.90;;;;;;6089224;23;20610;-80
2021/09/20 04:30:36;;;;;;;7.70;6.43;;;12.80;99.90;;;;;;6089597;23;21399;-80
2021/09/20 04:33:20;;;;;;;7.33;6.67;;;12.80;99.90;;;;;;6090374;23;21027;-80
2021/09/20 04:35:56;;;;;;;6.93;6.20;;;12.80;99.90;;;;;;6090464;23;21134;-80
2021/09/20 04:38:43;;;;;;;7.70;6.77;;;12.90;99.90;;;;;;6088173;23;20622;-80
2021/09/20 04:41:30;;;;;;;7.20;6.50;;;12.80;99.90;;;;;;6088993;23;20617;-80
2021/09/20 04:44:10;;;;;;;7.47;6.73;;;12.80;99.90;;;;;;6090071;23;21091;-80
2021/09/20 04:46:45;;;;;;;8.30;6.47;;;12.80;99.90;;;;;;6089422;23;20917;-80
2021/09/20 04:49:20;;;;;;;7.27;5.80;;;12.90;99.90;;;;;;6090182;23;20532;-80
2021/09/20 04:51:53;;;;;;;8.03;5.90;;;12.90;99.90;;;;;;6090417;23;20524;-80
2021/09/20 04:54:26;;;;;;;7.13;6.40;;;12.80;99.90;;;;;;6090001;23;20652;-80
2021/09/20 04:57:13;;;;;;;12.43;6.67;;;12.70;99.90;;;;;;6088476;23;20629;-80
2021/09/20 04:59:52;;;;;;;10.57;7.23;;;12.70;99.90;;;;;;6089879;23;20591;-80
2021/09/20 05:02:33;;;;;;;8.53;6.93;;;12.70;99.90;;;;;;6089320;23;20622;-80
2021/09/20 05:05:13;;;;;;;9.60;7.50;;;12.80;99.90;;;;;;6089932;22;20592;-80
2021/09/20 05:07:57;;;;;;;7.50;6.00;;;12.80;99.90;;;;;;6088142;22;21088;-80
2021/09/20 05:10:40;;;;;;;8.37;7.60;;;12.80;99.90;;;;;;6089727;23;20586;-80
2021/09/20 05:13:21;;;;;;;13.93;11.20;;;12.80;99.90;;;;;;6089945;23;20561;-80
2021/09/20 05:15:52;;;;;;;9.93;8.93;;;12.80;99.90;;;;;;6090279;23;20606;-80
2021/09/20 05:18:26;;;;;;;9.90;8.50;;;12.90;99.90;;;;;;6089528;23;20585;-80
2021/09/20 05:21:05;;;;;;;8.93;6.83;;;12.90;99.90;;;;;;6086330;23;21084;-80
2021/09/20 05:23:37;;;;;;;7.57;6.90;;;12.90;99.90;;;;;;6087115;23;20943;-80
2021/09/20 05:26:14;;;;;;;6.40;5.80;;;12.90;99.90;;;;;;6089417;23;20677;-80
2021/09/20 05:28:51;;;;;;;8.77;7.03;;;13.10;99.90;;;;;;6084034;23;21175;-80
2021/09/20 05:31:30;;;;;;;9.50;7.03;;;13.20;99.90;;;;;;6089354;23;20587;-80
2021/09/20 05:34:13;;;;;;;6.87;6.17;;;13.10;99.90;;;;;;6089730;23;20586;-80
2021/09/20 05:36:49;;;;;;;7.30;6.43;;;13.20;99.90;;;;;;6089172;23;20589;-80
2021/09/20 05:39:33;;;;;;;9.67;7.10;;;13.20;99.90;;;;;;6089350;23;20602;-80
2021/09/20 05:42:15;;;;;;;7.07;6.37;;;13.30;99.90;;;;;;6089800;23;20614;-80
2021/09/20 05:44:54;;;;;;;8.10;6.77;;;13.30;99.90;;;;;;6089863;23;20574;-80
2021/09/20 05:47:35;;;;;;;8.40;7.50;;;13.30;99.90;;;;;;6089589;23;20654;-80
2021/09/20 05:50:23;;;;;;;8.43;7.10;;;13.30;99.90;;;;;;6088324;23;20618;-80
2021/09/20 05:52:56;;;;;;;10.73;7.10;;;13.30;99.90;;;;;;6089129;23;20598;-80
2021/09/20 05:55:41;;;;;;;7.57;6.87;;;13.30;99.90;;;;;;6089899;23;20546;-80
2021/09/20 05:58:16;;;;;;;7.63;6.80;;;13.30;99.90;;;;;;6089558;22;20585;-80
2021/09/20 06:00:52;;;;;;;7.50;6.80;;;13.30;99.90;;;;;;6089452;23;20594;-80
2021/09/20 06:03:31;;;;;;;7.93;7.13;;;13.30;99.90;;;;;;6074130;23;20700;-81
2021/09/20 06:06:05;;;;;;;8.07;7.20;;;13.30;99.90;;;;;;6079880;23;20622;-81
2021/09/20 06:08:45;;;;;;;8.70;7.47;;;13.30;99.90;;;;;;6083738;23;20605;-82
2021/09/20 06:11:21;;;;;;;9.33;8.43;;;13.40;99.90;;;;;;6080231;23;20633;-82
2021/09/20 06:14:00;;;;;;;8.57;7.73;;;13.40;99.90;;;;;;6086772;23;20575;-82
2021/09/20 06:16:35;;;;;;;10.37;7.40;;;13.40;99.90;;;;;;6087584;23;21166;-82
2021/09/20 06:19:08;;;;;;;9.03;8.03;;;13.40;99.90;;;;;;6085906;23;20574;-81
2021/09/20 06:21:47;;;;;;;11.10;7.63;;;13.40;99.90;;;;;;6086465;23;20563;-82
2021/09/20 06:24:31;;;;;;;9.60;7.73;;;13.50;99.90;;;;;;6087252;23;20542;-82
2021/09/20 06:27:09;;;;;;;9.43;8.47;;;13.60;99.90;;;;;;6085608;23;20531;-82
2021/09/20 06:29:45;;;;;;;10.10;8.87;;;13.50;99.90;;;;;;6085301;23;20585;-81
2021/09/20 06:32:15;;;;;;;9.43;8.43;;;13.60;99.90;;;;;;6079464;23;20641;-82
2021/09/20 06:34:53;;;;;;;9.63;8.63;;;13.50;99.90;;;;;;6086565;23;21099;-82
2021/09/20 06:37:27;;;;;;;11.27;9.20;;;13.50;99.90;;;;;;6086201;23;20559;-82
2021/09/20 06:39:58;;;;;;;11.00;9.80;;;13.60;99.90;;;;;;6086507;23;20539;-81
2021/09/20 06:42:37;;;;;;;9.67;8.30;;;13.50;99.90;;;;;;6087517;23;20562;-82
2021/09/20 06:45:18;;;;;;;11.70;9.43;;;13.50;99.90;;;;;;6087880;23;20693;-81
2021/09/20 06:48:01;;;;;;;8.70;7.80;;;13.50;99.90;;;;;;6087865;23;20859;-82
2021/09/20 06:50:41;;;;;;;11.00;9.00;;;13.60;99.90;;;;;;6087543;23;20622;-81
2021/09/20 06:53:28;;;;;;;13.33;8.60;;;13.70;99.90;;;;;;6087647;23;20623;-82
2021/09/20 06:56:06;;;;;;;11.20;9.60;;;13.70;99.90;;;;;;6088234;23;20546;-82
2021/09/20 06:58:44;;;;;;;11.70;10.10;;;13.70;99.90;;;;;;6087627;23;20536;-81
2021/09/20 07:01:20;;;;;;;11.60;9.30;;;13.70;99.90;;;;;;6086576;23;20594;-82
2021/09/20 07:03:56;;;;;;;10.77;8.37;;;13.70;99.90;;;;;;6088197;23;20619;-82
2021/09/20 07:06:45;;;;;;;9.93;8.87;;;13.90;99.90;;;;;;6087871;23;20598;-81
2021/09/20 07:09:18;;;;;;;11.77;10.10;;;13.90;99.90;;;;;;6088784;23;21197;-82
2021/09/20 07:11:49;;;;;;;11.33;9.77;;;13.90;99.90;;;;;;6089115;23;20892;-82
2021/09/20 07:14:35;;;;;;;12.27;9.60;;;13.90;99.90;;;;;;6088389;23;21199;-82
2021/09/20 07:17:19;;;;;;;10.70;9.60;;;14.10;99.90;;;;;;6089459;23;20589;-82
2021/09/20 07:20:05;;;;;;;10.47;8.90;;;14.10;99.90;;;;;;6086848;23;20653;-82
2021/09/20 07:22:47;;;;;;;11.37;9.60;;;14.20;99.90;;;;;;6086758;23;20639;-82
2021/09/20 07:25:31;;;;;;;15.00;10.67;;;14.20;99.90;;;;;;6088310;23;20583;-82
2021/09/20 07:28:02;;;;;;;12.20;9.97;;;14.30;99.90;;;;;;6088512;23;20599;-82
2021/09/20 07:30:38;;;;;;;14.83;10.57;;;14.30;99.90;;;;;;6087934;23;20550;-81
2021/09/20 07:33:25;;;;;;;13.30;10.13;;;14.10;99.90;;;;;;6088377;23;20923;-81
2021/09/20 07:35:59;;;;;;;13.23;10.87;;;14.00;99.90;;;;;;6087748;23;20545;-82
2021/09/20 07:38:38;;;;;;;13.17;10.30;;;14.00;99.90;;;;;;6089138;23;20574;-82
2021/09/20 07:41:18;;;;;;;16.03;11.40;;;14.20;99.90;;;;;;6089556;23;20620;-82
2021/09/20 07:43:51;;;;;;;12.63;10.23;;;14.20;99.90;;;;;;6087898;23;20667;-82
2021/09/20 07:46:39;;;;;;;12.00;9.53;;;14.30;99.90;;;;;;6083855;23;20606;-82
2021/09/20 07:49:16;;;;;;;12.47;9.33;;;14.50;99.90;;;;;;6090306;23;20617;-82
2021/09/20 07:51:57;;;;;;;12.40;9.73;;;14.50;99.90;;;;;;6090566;23;20647;-81
2021/09/20 07:54:38;;;;;;;16.03;9.63;;;14.50;99.90;;;;;;6090087;23;20656;-82
2021/09/20 07:57:12;;;;;;;14.10;10.20;;;14.60;99.90;;;;;;6089589;23;20567;-82
2021/09/20 07:59:46;;;;;;;10.17;9.17;;;14.50;99.90;;;;;;6088854;23;20559;-82
2021/09/20 08:02:28;;;;;;;14.10;11.53;;;14.60;99.90;;;;;;6090249;23;20670;-82
2021/09/20 08:05:08;;;;;;;17.90;10.33;;;14.70;99.90;;;;;;6090367;23;20883;-82
2021/09/20 08:07:46;;;;;;;14.13;10.17;;;14.80;99.90;;;;;;6090237;23;20590;-82
2021/09/20 08:10:20;;;;;;;13.23;10.90;;;14.80;99.90;;;;;;6089408;23;20566;-82
2021/09/20 08:13:01;;;;;;;10.70;9.60;;;14.90;99.90;;;;;;6090369;23;20559;-82
2021/09/20 08:15:40;;;;;;;13.83;10.97;;;15.00;99.90;;;;;;6090279;23;20535;-82
2021/09/20 08:18:21;;;;;;;11.87;10.60;;;15.10;99.90;;;;;;6088579;23;20539;-82
2021/09/20 08:20:51;;;;;;;16.57;11.53;;;15.10;99.90;;;;;;6090046;23;20659;-83
2021/09/20 08:23:30;;;;;;;13.90;11.03;;;15.10;99.90;;;;;;6090283;23;20733;-82
2021/09/20 08:26:14;;;;;;;13.33;10.87;;;15.20;99.90;;;;;;6090141;23;21139;-82
2021/09/20 08:28:53;;;;;;;14.80;11.00;;;15.20;99.90;;;;;;6090149;23;20590;-82
2021/09/20 08:31:37;;;;;;;14.87;10.63;;;15.30;99.90;;;;;;6090425;23;20584;-83
2021/09/20 08:34:16;;;;;;;11.67;10.50;;;15.30;99.90;;;;;;6089332;23;20546;-82
2021/09/20 08:36:53;;;;;;;14.57;12.10;;;15.30;99.90;;;;;;6089889;23;20664;-82
2021/09/20 08:39:29;;;;;;;15.70;12.53;;;15.40;99.90;;;;;;6089439;23;21060;-82
2021/09/20 08:42:22;;;;;;;15.63;12.27;;;15.50;99.90;;;;;;6089580;23;20838;-82
2021/09/20 08:44:57;;;;;;;13.57;10.77;;;15.40;99.90;;;;;;6089647;23;20582;-82
2021/09/20 08:47:43;;;;;;;14.87;12.00;;;15.30;99.90;;;;;;6088542;23;20643;-82
2021/09/20 08:50:25;;;;;;;14.90;12.00;;;15.40;99.90;;;;;;6090445;23;20584;-82
2021/09/20 08:53:01;;;;;;;14.30;12.30;;;15.60;99.90;;;;;;6090231;23;20627;-82
2021/09/20 08:55:50;;;;;;;13.37;11.60;;;15.60;99.90;;;;;;6081868;23;20605;-82
2021/09/20 08:58:34;;;;;;;11.97;10.77;;;15.80;99.90;;;;;;6089413;23;20559;-82
2021/09/20 09:01:08;;;;;;;12.80;11.37;;;15.90;99.90;;;;;;6090108;23;20566;-82
2021/09/20 09:03:46;;;;;;;14.43;12.80;;;15.70;99.90;;;;;;6090337;22;20608;-81
2021/09/20 09:06:35;;;;;;;13.53;10.93;;;15.70;99.90;;;;;;6088386;23;20596;-81
2021/09/20 09:09:06;;;;;;;16.13;10.83;;;15.80;99.90;;;;;;6089760;23;20996;-81
2021/09/20 09:11:43;;;;;;;11.83;10.47;;;16.00;99.90;;;;;;6090296;23;20532;-81
2021/09/20 09:14:30;;;;;;;13.23;11.83;;;16.00;99.90;;;;;;6089979;23;20974;-81
2021/09/20 09:17:22;;;;;;;13.50;11.33;;;16.00;99.90;;;;;;6088679;23;20614;-81
2021/09/20 09:20:07;;;;;;;15.30;12.30;;;16.10;99.90;;;;;;6090366;23;20917;-81
2021/09/20 09:22:45;;;;;;;13.57;12.17;;;16.10;99.90;;;;;;6090045;23;20534;-81
2021/09/20 09:25:24;;;;;;;14.03;12.53;;;16.10;99.90;;;;;;6089501;23;20534;-82
2021/09/20 09:28:02;;;;;;;17.53;12.53;;;16.00;99.90;;;;;;6089292;23;20580;-82
2021/09/20 09:30:52;;;;;;;13.70;12.27;;;15.70;99.90;;;;;;6088725;23;20655;-82
2021/09/20 09:33:41;;;;;;;14.57;12.20;;;15.70;99.90;;;;;;6088301;23;20987;-81
2021/09/20 09:36:18;;;;;;;14.80;12.13;;;15.70;99.90;;;;;;6089620;23;20634;-81
2021/09/20 09:39:03;;;;;;;20.50;13.82;;;15.60;99.90;;;;;;6089566;23;20669;-81
2021/09/20 09:41:44;;;;;;;16.73;14.98;;;15.80;99.90;;;;;;6088378;23;20673;-81
2021/09/20 09:44:27;;;;;;;16.53;12.73;;;16.00;99.90;;;;;;6089966;23;20248;-81
2021/09/20 09:47:02;;;;;;;14.80;13.30;;;16.20;99.90;;;;;;6089382;23;20563;-81
2021/09/20 09:49:39;;;;;;;17.50;13.57;;;16.30;99.90;;;;;;6087978;23;20626;-80
2021/09/20 09:52:12;;;;;;;16.53;11.60;;;16.10;99.90;;;;;;6089648;23;21064;-81
2021/09/20 09:55:02;;;;;;;13.70;12.40;;;15.90;99.90;;;;;;6088019;23;20586;-81
2021/09/20 09:57:37;;;;;;;13.60;12.03;;;16.00;99.90;;;;;;6089047;23;20586;-81
2021/09/20 10:00:16;;;;;;;13.33;11.93;;;16.20;99.90;;;;;;6088740;23;20865;-80
2021/09/20 10:03:05;;;;;;;18.23;13.13;;;16.30;99.90;;;;;;6087293;23;20590;-81
2021/09/20 10:05:56;;;;;;;16.40;14.70;;;16.50;99.90;;;;;;6084354;23;20534;-81
2021/09/20 10:08:38;;;;;;;14.97;13.40;;;16.60;99.90;;;;;;6087686;23;20616;-81
2021/09/20 10:11:11;;;;;;;16.93;12.57;;;16.60;99.90;;;;;;6087961;23;21048;-81
2021/09/20 10:13:50;;;;;;;15.60;14.00;;;16.50;99.90;;;;;;6088555;23;20587;-81
2021/09/20 10:16:35;;;;;;;14.90;13.30;;;16.70;99.90;;;;;;6089032;23;20562;-81
2021/09/20 10:19:15;;;;;;;15.70;14.03;;;16.60;99.90;;;;;;6088889;23;20584;-81
2021/09/20 10:21:48;;;;;;;15.20;13.07;;;16.40;99.90;;;;;;6089848;23;20616;-81
2021/09/20 10:24:27;;;;;;;14.80;12.57;;;16.50;99.90;;;;;;6089089;23;20656;-81
2021/09/20 10:27:18;;;;;;;18.53;13.67;;;16.70;99.90;;;;;;6087231;23;20948;-81
2021/09/20 10:29:55;;;;;;;18.02;15.82;;;16.70;99.90;;;;;;6087629;23;20792;-81
2021/09/20 10:32:30;;;;;;;15.70;14.10;;;16.60;99.90;;;;;;6089230;23;20253;-81
2021/09/20 10:35:30;;;;;;;16.27;13.53;;;16.10;99.90;;;;;;6087967;23;20990;-81
2021/09/20 10:38:29;;;;;;;14.93;13.40;;;16.00;99.90;;;;;;6087355;23;20927;-81
2021/09/20 10:41:11;;;;;;;15.07;13.27;;;16.50;99.90;;;;;;6089375;23;20597;-81
2021/09/20 10:44:08;;;;;;;16.73;15.03;;;16.60;99.90;;;;;;6089957;23;21174;-81
2021/09/20 10:46:44;;;;;;;15.17;13.40;;;17.00;99.90;;;;;;6088585;23;20588;-81
2021/09/20 10:49:19;;;;;;;15.33;11.77;;;17.00;99.70;;;;;;6089149;23;20620;-81
2021/09/20 10:52:02;;;;;;;14.23;12.83;;;16.80;99.90;;;;;;6088511;23;20555;-81
2021/09/20 10:54:34;;;;;;;16.40;13.23;;;16.60;99.90;;;;;;6087309;23;21083;-81
2021/09/20 10:57:14;;;;;;;16.03;12.77;;;16.30;99.90;;;;;;6087195;23;20564;-81
2021/09/20 11:00:22;;;;;;;15.90;14.17;;;16.40;99.90;;;;;;6089022;23;20588;-81
2021/09/20 11:03:39;;;;;;;16.37;14.63;;;16.30;99.90;;;;;;6088594;23;20561;-81
2021/09/20 11:06:21;;;;;;;16.93;13.10;;;16.50;99.90;;;;;;6086916;23;20683;-81
2021/09/20 11:09:38;;;;;;;17.17;13.80;;;16.50;99.90;;;;;;6089464;23;21046;-81
2021/09/20 11:12:26;;;;;;;14.93;13.00;;;16.50;99.90;;;;;;6087864;23;20658;-81
2021/09/20 11:15:19;;;;;;;15.43;13.77;;;16.70;99.90;;;;;;6089309;23;20585;-81
2021/09/20 11:17:55;;;;;;;16.90;15.10;;;16.70;99.90;;;;;;6079792;23;20606;-81
2021/09/20 11:20:42;;;;;;;16.83;15.13;;;16.80;99.90;;;;;;6087862;23;20593;-82
2021/09/20 11:23:35;;;;;;;14.87;13.27;;;16.90;99.90;;;;;;6088843;23;21126;-81
2021/09/20 11:26:18;;;;;;;15.40;12.97;;;17.00;99.90;;;;;;6089290;23;20543;-81
2021/09/20 11:28:58;;;;;;;15.23;13.67;;;17.00;99.90;;;;;;6088790;23;20661;-81
2021/09/20 11:31:34;;;;;;;15.70;13.97;;;16.90;99.90;;;;;;6088916;23;20650;-81
2021/09/20 11:34:28;;;;;;;14.60;13.00;;;17.00;99.90;;;;;;6082434;23;20875;-82
2021/09/20 11:37:12;;;;;;;16.17;13.73;;;17.10;99.30;;;;;;6089240;23;20598;-82
2021/09/20 11:39:56;;;;;;;14.67;13.10;;;17.20;99.50;;;;;;6089365;23;20629;-82
2021/09/20 11:42:45;;;;;;;16.10;14.53;;;17.30;99.40;;;;;;6089231;23;20542;-82
2021/09/20 11:45:35;;;;;;;14.77;13.27;;;17.30;98.90;;;;;;6088896;22;21071;-81
2021/09/20 11:48:20;;;;;;;14.63;13.03;;;17.40;98.70;;;;;;6089759;23;20649;-83
2021/09/20 11:51:06;;;;;;;14.20;12.70;;;17.50;98.90;;;;;;6088755;23;20664;-82
2021/09/20 11:53:45;;;;;;;13.67;12.13;;;17.20;98.90;;;;;;6089224;23;20539;-82
2021/09/20 11:56:27;;;;;;;13.87;12.23;;;17.50;98.90;;;;;;6088881;23;20625;-82
2021/09/20 11:59:09;;;;;;;14.27;12.87;;;17.60;98.60;;;;;;6089760;23;20564;-82
2021/09/20 12:01:50;;;;;;;14.33;12.10;;;17.70;98.40;;;;;;6089344;23;20686;-82
2021/09/20 12:04:51;;;;;;;13.50;12.13;;;17.60;97.90;;;;;;6089602;23;20621;-83
2021/09/20 12:07:45;;;;;;;12.67;11.00;;;17.60;97.60;;;;;;6087347;23;20579;-83
2021/09/20 12:10:34;;;;;;;15.83;11.93;;;17.30;97.80;;;;;;6087818;23;20587;-82
2021/09/20 12:13:23;;;;;;;14.10;12.80;;;17.60;98.40;;;;;;6086228;23;20575;-82
2021/09/20 12:16:10;;;;;;;11.00;9.97;;;17.60;97.90;;;;;;6087828;23;20614;-83
2021/09/20 12:18:43;;;;;;;12.10;10.80;;;17.70;97.70;;;;;;6080308;23;20815;-84
2021/09/20 12:21:25;;;;;;;12.00;10.87;;;17.80;97.60;;;;;;6086522;23;20540;-82
2021/09/20 12:24:00;;;;;;;13.17;11.77;;;17.70;97.80;;;;;;6087915;23;20664;-82
2021/09/20 12:26:35;;;;;;;12.13;11.03;;;17.40;97.30;;;;;;6082069;23;20684;-82
2021/09/20 12:29:15;;;;;;;12.20;10.90;;;17.00;97.40;;;;;;6088971;23;20930;-82
2021/09/20 12:31:48;;;;;;;12.43;11.23;;;16.80;97.90;;;;;;6089070;23;20558;-82
2021/09/20 12:34:35;;;;;;;11.57;10.37;;;16.70;98.50;;;;;;6089410;23;20591;-82
2021/09/20 12:37:26;;;;;;;12.50;11.27;;;16.70;99.30;;;;;;6088836;23;20588;-82
2021/09/20 12:40:22;;;;;;;17.07;12.33;;;16.80;99.00;;;;;;6088193;23;20656;-82
2021/09/20 12:43:10;;;;;;;11.83;10.57;;;16.70;99.20;;;;;;6089350;23;20590;-82
2021/09/20 12:45:58;;;;;;;12.33;11.13;;;16.60;98.70;;;;;;6088147;23;21417;-82
2021/09/20 12:48:43;;;;;;;11.63;10.47;;;16.50;99.30;;;;;;6089143;23;20631;-82
2021/09/20 12:51:19;;;;;;;12.20;10.90;;;16.80;99.70;;;;;;6088067;23;20545;-83
2021/09/20 12:53:59;;;;;;;11.53;10.40;;;17.20;98.60;;;;;;6090341;23;20554;-83
2021/09/20 12:56:45;;;;;;;15.30;11.40;;;17.50;98.30;;;;;;6089195;23;20663;-82
2021/09/20 12:59:20;;;;;;;12.83;11.23;;;17.60;98.20;;;;;;6089537;23;20570;-83
2021/09/20 13:02:01;;;;;;;11.43;10.23;;;17.80;97.80;;;;;;6090308;23;20565;-83
2021/09/20 13:04:39;;;;;;;11.57;9.83;;;18.00;97.20;;;;;;6090326;23;20638;-83
2021/09/20 13:07:22;;;;;;;12.10;10.90;;;18.00;97.20;;;;;;6087078;23;20558;-83
2021/09/20 13:10:03;;;;;;;10.67;9.57;;;18.10;96.40;;;;;;6089279;22;20570;-82
2021/09/20 13:12:40;;;;;;;12.40;11.10;;;18.50;95.50;;;;;;6090268;22;20577;-82
2021/09/20 13:15:17;;;;;;;10.60;9.50;;;18.00;95.80;;;;;;6090073;23;20928;-83
2021/09/20 13:18:18;;;;;;;10.67;9.57;;;17.80;96.60;;;;;;6088379;23;20936;-84
2021/09/20 13:20:53;;;;;;;9.77;8.87;;;17.90;96.60;;;;;;6089671;23;20583;-84
2021/09/20 13:23:38;;;;;;;11.57;9.73;;;17.70;95.60;;;;;;6089674;23;20528;-83
2021/09/20 13:26:10;;;;;;;10.53;9.30;;;18.10;95.90;;;;;;6089548;23;21165;-83
2021/09/20 13:29:00;;;;;;;10.40;9.33;;;18.10;96.00;;;;;;6088081;23;20614;-83
2021/09/20 13:31:34;;;;;;;11.37;9.80;;;17.70;96.00;;;;;;6089037;23;20531;-84
2021/09/20 13:34:15;;;;;;;9.80;8.80;;;18.20;96.00;;;;;;6089774;23;20594;-84
2021/09/20 13:36:47;;;;;;;10.63;9.53;;;18.40;96.00;;;;;;6083382;23;20603;-84
2021/09/20 13:39:26;;;;;;;10.20;8.70;;;18.50;94.50;;;;;;6089613;23;21158;-84
2021/09/20 13:42:12;;;;;;;12.17;9.00;;;18.50;95.50;;;;;;6089982;22;20587;-84
2021/09/20 13:45:00;;;;;;;9.50;8.33;;;18.20;94.80;;;;;;6087505;23;20620;-84
2021/09/20 13:47:49;;;;;;;10.00;9.00;;;18.10;95.50;;;;;;6089177;23;20599;-84